createdAt,value
2023-05-22T00:00:20.146Z,71.11
2023-05-22T00:02:46.928Z,71.41
2023-05-22T00:05:15.065Z,71.63
2023-05-22T00:07:46.054Z,71.68
2023-05-22T00:10:12.904Z,71.81
2023-05-22T00:12:39.824Z,71.95
2023-05-22T00:15:07.244Z,71.93
2023-05-22T00:17:34.399Z,72.07
2023-05-22T00:20:07.395Z,72.07
2023-05-22T00:22:37.134Z,72.11
2023-05-22T00:25:04.714Z,72.40
2023-05-22T00:27:31.755Z,72.42
2023-05-22T00:29:59.403Z,72.55
2023-05-22T00:32:26.511Z,72.67
2023-05-22T00:34:53.618Z,73.04
2023-05-22T00:37:20.348Z,72.78
2023-05-22T00:39:47.236Z,72.94
2023-05-22T00:42:14.101Z,73.27
2023-05-22T00:44:41.909Z,73.40
2023-05-22T00:47:08.600Z,73.67
2023-05-22T00:49:35.314Z,73.43
2023-05-22T00:52:02.685Z,73.93
2023-05-22T00:54:32.017Z,74.26
2023-05-22T00:57:00.694Z,74.09
2023-05-22T00:59:28.173Z,74.19
2023-05-22T01:01:56.154Z,74.14
2023-05-22T01:04:23.459Z,74.35
2023-05-22T01:06:50.197Z,74.29
2023-05-22T01:09:16.952Z,74.62
2023-05-22T01:11:58.590Z,74.70
2023-05-22T01:14:28.202Z,74.66
2023-05-22T01:17:25.703Z,74.47
2023-05-22T01:20:01.630Z,74.78
2023-05-22T01:22:41.052Z,74.70
2023-05-22T01:25:50.199Z,74.58
2023-05-22T01:28:45.605Z,74.70
2023-05-22T01:31:18.153Z,75.12
2023-05-22T01:34:01.046Z,75.53
2023-05-22T01:36:31.805Z,75.26
2023-05-22T01:39:01.593Z,75.49
2023-05-22T01:41:29.967Z,76.19
2023-05-22T01:43:56.705Z,75.81
2023-05-22T01:46:32.360Z,75.57
2023-05-22T01:48:59.783Z,75.26
2023-05-22T01:51:37.992Z,75.78
2023-05-22T01:54:41.658Z,75.94
2023-05-22T01:57:51.470Z,75.69
2023-05-22T02:00:22.345Z,76.38
2023-05-22T02:02:53.595Z,76.01
2023-05-22T02:05:22.482Z,76.70
2023-05-22T02:07:50.204Z,76.77
2023-05-22T02:10:17.173Z,77.15
2023-05-22T02:12:44.740Z,77.97
2023-05-22T02:15:11.921Z,77.87
2023-05-22T02:17:43.066Z,77.47
2023-05-22T02:20:15.647Z,78.37
2023-05-22T02:22:44.520Z,78.09
2023-05-22T02:25:14.521Z,78.48
2023-05-22T02:27:42.907Z,78.08
2023-05-22T02:30:10.395Z,78.33
2023-05-22T02:32:37.484Z,78.27
2023-05-22T02:35:05.211Z,78.41
2023-05-22T02:37:31.948Z,78.94
2023-05-22T02:39:58.763Z,79.85
2023-05-22T02:42:25.649Z,80.05
2023-05-22T02:44:52.390Z,80.23
2023-05-22T02:47:19.131Z,80.24
2023-05-22T02:49:46.083Z,79.87
2023-05-22T02:52:12.786Z,79.79
2023-05-22T02:54:39.611Z,79.78
2023-05-22T02:57:06.380Z,79.55
2023-05-22T02:59:33.134Z,79.97
2023-05-22T03:01:59.911Z,80.23
2023-05-22T03:04:28.040Z,80.57
2023-05-22T03:06:54.832Z,80.34
2023-05-22T03:09:21.538Z,80.92
2023-05-22T03:11:48.203Z,80.84
2023-05-22T03:14:14.859Z,81.11
2023-05-22T03:16:41.834Z,81.48
2023-05-22T03:19:12.614Z,82.03
2023-05-22T03:21:42.661Z,82.36
2023-05-22T03:24:11.635Z,81.70
2023-05-22T03:26:39.227Z,81.99
2023-05-22T03:29:06.012Z,81.66
2023-05-22T03:31:33.720Z,81.54
2023-05-22T03:34:01.127Z,81.87
2023-05-22T03:36:28.731Z,82.00
2023-05-22T03:38:56.490Z,82.14
2023-05-22T03:41:23.062Z,82.18
2023-05-22T03:43:49.817Z,82.00
2023-05-22T03:46:16.605Z,82.02
2023-05-22T03:48:43.250Z,82.03
2023-05-22T03:51:09.890Z,82.01
2023-05-22T03:53:36.564Z,82.07
2023-05-22T03:56:03.270Z,82.22
2023-05-22T03:58:30.004Z,82.50
2023-05-22T04:01:01.180Z,82.58
2023-05-22T04:03:28.697Z,82.51
2023-05-22T04:05:56.867Z,82.75
2023-05-22T04:08:23.652Z,82.42
2023-05-22T04:10:50.332Z,82.52
2023-05-22T04:13:17.685Z,82.61
2023-05-22T04:15:46.003Z,82.88
2023-05-22T04:18:13.209Z,82.42
2023-05-22T04:20:40.744Z,82.69
2023-05-22T04:23:08.107Z,82.61
2023-05-22T04:25:37.065Z,82.17
2023-05-22T04:28:04.280Z,81.63
2023-05-22T04:30:34.216Z,81.68
2023-05-22T04:33:01.790Z,81.48
2023-05-22T04:35:29.745Z,80.69
2023-05-22T04:38:02.645Z,80.12
2023-05-22T04:40:30.483Z,80.10
2023-05-22T04:43:00.043Z,79.76
2023-05-22T04:45:29.015Z,79.56
2023-05-22T04:47:56.594Z,78.94
2023-05-22T04:50:24.167Z,78.93
2023-05-22T04:52:51.139Z,78.37
2023-05-22T04:55:19.277Z,77.98
2023-05-22T04:57:46.207Z,77.66
2023-05-22T05:00:14.523Z,77.05
2023-05-22T05:02:41.871Z,76.72
2023-05-22T05:05:11.331Z,76.29
2023-05-22T05:07:40.982Z,75.58
2023-05-22T05:10:08.160Z,74.22
2023-05-22T05:12:34.963Z,73.22
2023-05-22T05:15:01.856Z,71.41
2023-05-22T05:17:28.852Z,69.29
2023-05-22T05:19:55.908Z,68.28
2023-05-22T05:22:23.092Z,67.82
2023-05-22T05:24:50.090Z,67.15
2023-05-22T05:27:16.866Z,66.30
2023-05-22T05:29:43.749Z,64.75
2023-05-22T05:32:14.238Z,63.77
2023-05-22T05:34:41.729Z,63.08
2023-05-22T05:37:09.614Z,61.92
2023-05-22T05:39:36.353Z,60.90
2023-05-22T05:42:03.067Z,61.06
2023-05-22T05:44:29.723Z,60.33
2023-05-22T05:46:57.083Z,59.67
2023-05-22T05:49:23.877Z,59.95
2023-05-22T05:51:52.572Z,59.74
2023-05-22T05:54:20.288Z,58.48
2023-05-22T05:56:47.026Z,58.32
2023-05-22T05:59:14.291Z,57.28
2023-05-22T06:01:45.997Z,56.68
2023-05-22T06:04:13.747Z,56.17
2023-05-22T06:06:42.497Z,55.97
2023-05-22T06:09:11.235Z,55.77
2023-05-22T06:11:37.974Z,54.00
2023-05-22T06:14:07.452Z,53.41
2023-05-22T06:16:34.586Z,52.88
2023-05-22T06:19:01.565Z,51.91
2023-05-22T06:21:28.460Z,51.39
2023-05-22T06:23:55.189Z,49.50
2023-05-22T06:26:23.609Z,49.98
2023-05-22T06:28:51.748Z,49.89
2023-05-22T06:31:18.712Z,48.98
2023-05-22T06:33:45.617Z,48.25
2023-05-22T06:36:13.813Z,48.07
2023-05-22T06:38:41.542Z,47.39
2023-05-22T06:41:08.214Z,46.58
2023-05-22T06:43:35.015Z,45.02
2023-05-22T06:46:02.864Z,45.48
2023-05-22T06:48:36.371Z,45.32
2023-05-22T06:51:04.552Z,44.72
2023-05-22T06:53:31.344Z,44.51
2023-05-22T06:55:58.123Z,44.03
2023-05-22T06:58:24.875Z,41.95
2023-05-22T07:00:54.225Z,42.12
2023-05-22T07:03:21.472Z,41.86
2023-05-22T07:05:48.293Z,42.04
2023-05-22T07:08:16.267Z,40.67
2023-05-22T07:10:42.871Z,38.82
2023-05-22T07:13:12.178Z,40.99
2023-05-22T07:15:38.839Z,40.27
2023-05-22T07:18:05.957Z,40.66
2023-05-22T07:20:32.781Z,40.27
2023-05-22T07:22:59.597Z,39.20
2023-05-22T07:25:26.341Z,39.25
2023-05-22T07:27:53.140Z,38.59
2023-05-22T07:30:19.955Z,38.29
2023-05-22T07:32:52.003Z,36.77
2023-05-22T07:35:18.690Z,37.23
2023-05-22T07:37:45.537Z,37.45
2023-05-22T07:40:12.566Z,37.02
2023-05-22T07:42:41.563Z,37.72
2023-05-22T07:45:11.144Z,37.07
2023-05-22T07:47:38.289Z,36.99
2023-05-22T07:50:07.774Z,36.92
2023-05-22T07:52:35.058Z,37.18
2023-05-22T07:55:02.381Z,37.18
2023-05-22T07:57:30.727Z,36.41
2023-05-22T07:59:59.573Z,35.25
2023-05-22T08:02:27.564Z,35.02
2023-05-22T08:04:54.971Z,34.56
2023-05-22T08:07:22.404Z,34.31
2023-05-22T08:09:49.633Z,35.13
2023-05-22T08:12:18.965Z,34.63
2023-05-22T08:14:49.090Z,34.62
2023-05-22T08:17:16.120Z,34.55
2023-05-22T08:19:43.534Z,33.99
2023-05-22T08:22:11.342Z,34.65
2023-05-22T08:24:38.344Z,33.26
2023-05-22T08:27:07.047Z,32.82
2023-05-22T08:29:35.702Z,34.06
2023-05-22T08:32:04.436Z,33.26
2023-05-22T08:34:33.244Z,33.38
2023-05-22T08:37:00.215Z,33.02
2023-05-22T08:39:29.061Z,31.80
2023-05-22T08:41:57.047Z,32.15
2023-05-22T08:44:25.268Z,31.70
2023-05-22T08:46:56.699Z,31.03
2023-05-22T08:49:24.497Z,30.59
2023-05-22T08:51:54.527Z,30.43
2023-05-22T08:54:24.868Z,31.74
2023-05-22T08:56:56.706Z,30.49
2023-05-22T08:59:24.649Z,30.91
2023-05-22T09:01:52.578Z,31.03
2023-05-22T09:04:23.789Z,31.74
2023-05-22T09:06:51.486Z,32.16
2023-05-22T09:09:19.074Z,32.74
2023-05-22T09:11:48.650Z,32.53
2023-05-22T09:14:16.435Z,30.88
2023-05-22T09:16:47.338Z,30.40
2023-05-22T09:19:15.114Z,30.72
2023-05-22T09:21:44.265Z,30.98
2023-05-22T09:24:14.265Z,29.83
2023-05-22T09:26:41.358Z,30.00
2023-05-22T09:29:10.398Z,28.77
2023-05-22T09:31:43.704Z,29.97
2023-05-22T09:34:11.297Z,29.44
2023-05-22T09:36:38.062Z,28.79
2023-05-22T09:39:04.960Z,29.57
2023-05-22T09:41:36.513Z,28.94
2023-05-22T09:44:12.847Z,29.29
2023-05-22T09:46:45.342Z,28.67
2023-05-22T09:49:15.787Z,29.12
2023-05-22T09:51:48.467Z,29.55
2023-05-22T09:54:16.436Z,29.67
2023-05-22T09:56:44.803Z,29.95
2023-05-22T09:59:13.959Z,29.78
2023-05-22T10:01:42.747Z,29.73
2023-05-22T10:04:13.917Z,29.19
2023-05-22T10:06:50.259Z,29.22
2023-05-22T10:09:19.676Z,29.89
2023-05-22T10:11:47.474Z,30.49
2023-05-22T10:14:15.014Z,30.36
2023-05-22T10:16:43.105Z,29.17
2023-05-22T10:19:11.278Z,28.76
2023-05-22T10:21:41.250Z,28.86
2023-05-22T10:24:08.696Z,28.42
2023-05-22T10:26:35.680Z,28.98
2023-05-22T10:29:12.480Z,28.58
2023-05-22T10:31:58.624Z,28.73
2023-05-22T10:34:43.890Z,29.23
2023-05-22T10:37:29.618Z,28.36
2023-05-22T10:40:07.429Z,28.25
2023-05-22T10:42:34.664Z,28.26
2023-05-22T10:45:01.946Z,28.69
2023-05-22T10:47:28.824Z,29.58
2023-05-22T10:50:11.174Z,29.30
2023-05-22T10:52:40.645Z,29.76
2023-05-22T10:55:09.839Z,29.67
2023-05-22T10:57:42.105Z,29.22
2023-05-22T11:00:13.177Z,28.57
2023-05-22T11:02:42.658Z,27.82
2023-05-22T11:05:18.740Z,26.78
2023-05-22T11:07:46.524Z,27.70
2023-05-22T11:10:14.241Z,28.18
2023-05-22T11:12:41.654Z,28.88
2023-05-22T11:15:10.028Z,28.35
2023-05-22T11:17:45.056Z,28.74
2023-05-22T11:20:16.232Z,28.35
2023-05-22T11:22:49.644Z,27.33
2023-05-22T11:25:21.064Z,27.95
2023-05-22T11:27:48.935Z,27.26
2023-05-22T11:30:16.532Z,27.35
2023-05-22T11:32:48.060Z,26.76
2023-05-22T11:35:17.292Z,25.74
2023-05-22T11:37:44.804Z,26.45
2023-05-22T11:40:14.917Z,27.00
2023-05-22T11:42:42.698Z,27.39
2023-05-22T11:45:12.992Z,27.05
2023-05-22T11:47:39.955Z,25.82
2023-05-22T11:50:09.972Z,27.12
2023-05-22T11:52:39.575Z,28.70
2023-05-22T11:55:07.917Z,29.26
2023-05-22T11:57:35.125Z,30.12
2023-05-22T12:00:03.425Z,29.38
2023-05-22T12:02:30.419Z,29.75
2023-05-22T12:04:58.279Z,30.08
2023-05-22T12:07:26.061Z,30.13
2023-05-22T12:09:52.877Z,29.97
2023-05-22T12:12:22.481Z,30.20
2023-05-22T12:14:49.807Z,29.57
2023-05-22T12:17:17.719Z,29.16
2023-05-22T12:19:45.237Z,27.69
2023-05-22T12:22:12.186Z,27.81
2023-05-22T12:24:46.230Z,27.21
2023-05-22T12:27:13.991Z,26.98
2023-05-22T12:29:42.380Z,27.19
2023-05-22T12:32:11.703Z,26.72
2023-05-22T12:34:49.106Z,25.80
2023-05-22T12:37:26.010Z,26.07
2023-05-22T12:40:01.082Z,26.44
2023-05-22T12:42:29.204Z,25.50
2023-05-22T12:44:58.417Z,25.67
2023-05-22T12:47:26.149Z,25.14
2023-05-22T12:49:53.371Z,25.07
2023-05-22T12:52:20.762Z,24.77
2023-05-22T12:54:54.704Z,24.61
2023-05-22T12:57:44.582Z,24.52
2023-05-22T13:00:16.876Z,24.15
2023-05-22T13:02:49.469Z,23.42
2023-05-22T13:05:19.209Z,22.70
2023-05-22T13:08:00.804Z,23.27
2023-05-22T13:10:28.430Z,23.55
2023-05-22T13:13:31.583Z,22.51
2023-05-22T13:16:06.634Z,23.14
2023-05-22T13:18:54.311Z,22.32
2023-05-22T13:21:25.830Z,22.14
2023-05-22T13:24:02.545Z,22.34
2023-05-22T13:26:30.147Z,22.22
2023-05-22T13:28:59.152Z,21.99
2023-05-22T13:31:29.220Z,22.30
2023-05-22T13:34:03.159Z,22.08
2023-05-22T13:36:32.010Z,22.22
2023-05-22T13:39:00.515Z,22.14
2023-05-22T13:41:35.008Z,22.55
2023-05-22T13:44:24.464Z,23.37
2023-05-22T13:46:55.189Z,23.59
2023-05-22T13:49:25.810Z,24.06
2023-05-22T13:51:53.534Z,24.35
2023-05-22T13:54:21.229Z,23.74
2023-05-22T13:56:48.607Z,24.18
2023-05-22T13:59:25.181Z,24.76
2023-05-22T14:01:52.380Z,24.09
2023-05-22T14:04:29.952Z,24.82
2023-05-22T14:06:58.023Z,25.33
2023-05-22T14:09:29.958Z,25.51
2023-05-22T14:11:59.785Z,24.90
2023-05-22T14:14:29.132Z,25.08
2023-05-22T14:16:56.057Z,24.54
2023-05-22T14:19:22.843Z,24.22
2023-05-22T14:21:57.116Z,23.55
2023-05-22T14:24:27.131Z,23.96
2023-05-22T14:26:58.291Z,23.77
2023-05-22T14:29:26.164Z,23.34
2023-05-22T14:31:55.650Z,23.76
2023-05-22T14:34:22.575Z,23.52
2023-05-22T14:36:52.639Z,23.89
2023-05-22T14:39:24.833Z,24.19
2023-05-22T14:41:55.446Z,22.92
2023-05-22T14:44:24.567Z,23.02
2023-05-22T14:46:55.183Z,22.38
2023-05-22T14:49:22.027Z,22.86
2023-05-22T14:51:57.456Z,23.63
2023-05-22T14:54:40.129Z,24.13
2023-05-22T14:57:08.799Z,24.73
2023-05-22T14:59:35.474Z,25.15
2023-05-22T15:02:02.174Z,24.92
2023-05-22T15:04:29.868Z,25.36
2023-05-22T15:06:56.496Z,25.45
2023-05-22T15:09:23.456Z,25.64
2023-05-22T15:11:51.199Z,25.88
2023-05-22T15:14:17.984Z,25.87
2023-05-22T15:16:45.101Z,26.34
2023-05-22T15:19:12.025Z,26.24
2023-05-22T15:21:38.884Z,26.31
2023-05-22T15:24:06.278Z,27.01
2023-05-22T15:26:33.021Z,26.99
2023-05-22T15:29:01.435Z,27.30
2023-05-22T15:31:31.762Z,27.55
2023-05-22T15:33:58.471Z,27.91
2023-05-22T15:36:26.973Z,27.84
2023-05-22T15:38:53.646Z,28.26
2023-05-22T15:41:21.589Z,28.58
2023-05-22T15:43:48.377Z,28.43
2023-05-22T15:46:16.823Z,28.64
2023-05-22T15:48:44.716Z,28.88
2023-05-22T15:51:13.046Z,28.54
2023-05-22T15:53:40.030Z,28.66
2023-05-22T15:56:07.061Z,28.57
2023-05-22T15:58:33.768Z,28.04
2023-05-22T16:01:00.565Z,28.09
2023-05-22T16:03:27.457Z,28.14
2023-05-22T16:05:55.178Z,28.33
2023-05-22T16:08:21.862Z,28.57
2023-05-22T16:10:48.589Z,28.76
2023-05-22T16:13:15.515Z,29.29
2023-05-22T16:15:43.788Z,29.49
2023-05-22T16:18:12.148Z,29.73
2023-05-22T16:20:39.424Z,31.14
2023-05-22T16:23:06.195Z,31.93
2023-05-22T16:25:32.903Z,32.04
2023-05-22T16:28:00.679Z,32.95
2023-05-22T16:30:27.527Z,33.52
2023-05-22T16:32:54.284Z,34.24
2023-05-22T16:35:22.289Z,34.59
2023-05-22T16:37:50.269Z,35.10
2023-05-22T16:40:18.604Z,35.31
2023-05-22T16:42:45.467Z,35.77
2023-05-22T16:45:12.387Z,36.10
2023-05-22T16:47:39.412Z,36.71
2023-05-22T16:50:06.999Z,37.34
2023-05-22T16:52:33.849Z,37.62
2023-05-22T16:55:01.301Z,38.29
2023-05-22T16:57:31.060Z,38.73
2023-05-22T16:59:59.962Z,39.51
2023-05-22T17:02:26.770Z,39.64
2023-05-22T17:04:54.554Z,39.69
2023-05-22T17:07:21.432Z,39.75
2023-05-22T17:09:48.190Z,39.64
2023-05-22T17:12:15.029Z,39.69
2023-05-22T17:14:47.710Z,39.91
2023-05-22T17:17:14.490Z,39.88
2023-05-22T17:19:41.558Z,40.12
2023-05-22T17:22:08.873Z,40.29
2023-05-22T17:24:35.572Z,40.17
2023-05-22T17:27:03.567Z,40.28
2023-05-22T17:29:30.272Z,40.30
2023-05-22T17:31:59.238Z,40.70
2023-05-22T17:34:25.944Z,40.98
2023-05-22T17:36:52.717Z,41.42
2023-05-22T17:39:19.569Z,42.11
2023-05-22T17:41:46.240Z,42.15
2023-05-22T17:44:13.000Z,42.26
2023-05-22T17:46:40.592Z,42.78
2023-05-22T17:49:07.248Z,43.39
2023-05-22T17:51:34.992Z,43.38
2023-05-22T17:54:01.817Z,43.52
2023-05-22T17:56:28.647Z,43.08
2023-05-22T17:58:55.421Z,42.79
2023-05-22T18:01:24.538Z,42.74
2023-05-22T18:03:51.685Z,42.34
2023-05-22T18:06:18.614Z,42.13
2023-05-22T18:08:47.757Z,41.82
2023-05-22T18:11:17.584Z,41.91
2023-05-22T18:13:45.806Z,41.60
2023-05-22T18:16:12.653Z,42.00
2023-05-22T18:18:42.096Z,42.08
2023-05-22T18:21:08.936Z,42.18
2023-05-22T18:23:35.872Z,41.89
2023-05-22T18:26:03.589Z,41.90
2023-05-22T18:28:30.300Z,42.31
2023-05-22T18:30:57.313Z,42.39
2023-05-22T18:33:27.560Z,42.44
2023-05-22T18:35:54.296Z,42.77
2023-05-22T18:38:22.201Z,42.66
2023-05-22T18:40:49.234Z,42.86
2023-05-22T18:43:16.010Z,42.80
2023-05-22T18:45:42.757Z,42.93
2023-05-22T18:48:09.705Z,42.99
2023-05-22T18:50:37.091Z,43.05
2023-05-22T18:53:03.908Z,43.26
2023-05-22T18:55:30.837Z,43.37
2023-05-22T18:57:57.443Z,43.44
2023-05-22T19:00:24.241Z,43.65
2023-05-22T19:02:51.117Z,43.87
2023-05-22T19:05:18.850Z,44.16
2023-05-22T19:07:45.793Z,44.39
2023-05-22T19:10:12.549Z,44.77
2023-05-22T19:12:41.631Z,45.03
2023-05-22T19:15:09.636Z,45.65
2023-05-22T19:17:36.279Z,45.84
2023-05-22T19:20:06.536Z,46.30
2023-05-22T19:22:33.701Z,46.57
2023-05-22T19:25:00.461Z,47.02
2023-05-22T19:27:27.207Z,47.25
2023-05-22T19:29:53.813Z,47.47
2023-05-22T19:32:20.616Z,47.57
2023-05-22T19:34:47.554Z,47.86
2023-05-22T19:37:15.515Z,47.86
2023-05-22T19:39:42.472Z,48.38
2023-05-22T19:42:10.840Z,48.67
2023-05-22T19:44:37.606Z,48.59
2023-05-22T19:47:04.373Z,48.85
2023-05-22T19:49:31.945Z,49.13
2023-05-22T19:51:59.617Z,49.17
2023-05-22T19:54:26.484Z,49.26
2023-05-22T19:56:53.456Z,49.61
2023-05-22T19:59:20.534Z,49.61
2023-05-22T20:01:48.149Z,50.15
2023-05-22T20:04:15.958Z,50.32
2023-05-22T20:06:45.270Z,50.56
2023-05-22T20:09:12.020Z,50.86
2023-05-22T20:11:38.668Z,50.94
2023-05-22T20:14:05.318Z,51.40
2023-05-22T20:16:32.124Z,51.67
2023-05-22T20:18:59.907Z,51.64
2023-05-22T20:21:26.719Z,52.05
2023-05-22T20:23:55.754Z,52.25
2023-05-22T20:26:24.992Z,52.42
2023-05-22T20:28:52.243Z,52.72
2023-05-22T20:31:19.064Z,52.75
2023-05-22T20:33:46.899Z,52.97
2023-05-22T20:36:17.012Z,53.27
2023-05-22T20:38:43.812Z,53.55
2023-05-22T20:41:12.911Z,53.64
2023-05-22T20:43:43.391Z,53.97
2023-05-22T20:46:10.915Z,53.70
2023-05-22T20:48:38.178Z,53.80
2023-05-22T20:51:05.096Z,53.78
2023-05-22T20:53:31.946Z,53.96
2023-05-22T20:55:58.696Z,53.95
2023-05-22T20:58:27.493Z,54.07
2023-05-22T21:00:54.276Z,54.39
2023-05-22T21:03:21.752Z,54.51
2023-05-22T21:05:49.615Z,54.55
2023-05-22T21:08:17.807Z,54.41
2023-05-22T21:10:44.361Z,54.52
2023-05-22T21:13:11.302Z,54.49
2023-05-22T21:15:38.129Z,54.49
2023-05-22T21:18:04.861Z,54.72
2023-05-22T21:20:31.549Z,54.67
2023-05-22T21:22:58.135Z,54.97
2023-05-22T21:25:24.874Z,55.04
2023-05-22T21:27:51.639Z,55.12
2023-05-22T21:30:18.475Z,54.98
2023-05-22T21:32:45.177Z,55.04
2023-05-22T21:35:11.976Z,55.10
2023-05-22T21:37:40.507Z,55.13
2023-05-22T21:40:08.908Z,55.03
2023-05-22T21:42:45.810Z,55.14
2023-05-22T21:45:14.209Z,54.92
2023-05-22T21:47:41.360Z,55.12
2023-05-22T21:50:08.332Z,55.03
2023-05-22T21:52:35.057Z,55.92
2023-05-22T21:55:02.554Z,55.87
2023-05-22T21:57:29.428Z,55.94
2023-05-22T21:59:56.134Z,55.51
2023-05-22T22:02:22.944Z,55.40
2023-05-22T22:04:49.617Z,55.17
2023-05-22T22:07:16.336Z,54.47
2023-05-22T22:09:42.909Z,54.22
2023-05-22T22:12:09.683Z,53.96
2023-05-22T22:14:36.465Z,53.70
2023-05-22T22:17:05.745Z,53.68
2023-05-22T22:19:34.426Z,53.60
2023-05-22T22:22:01.732Z,54.11
2023-05-22T22:24:29.451Z,54.03
2023-05-22T22:26:56.774Z,54.38
2023-05-22T22:29:23.636Z,54.65
2023-05-22T22:31:50.546Z,54.78
2023-05-22T22:34:17.396Z,55.10
2023-05-22T22:36:44.382Z,55.27
2023-05-22T22:39:11.325Z,55.86
2023-05-22T22:41:38.082Z,56.10
2023-05-22T22:44:04.998Z,56.26
2023-05-22T22:46:32.213Z,56.66
2023-05-22T22:49:01.857Z,56.39
2023-05-22T22:51:30.941Z,56.53
2023-05-22T22:53:58.429Z,56.64
2023-05-22T22:56:29.606Z,56.25
2023-05-22T22:58:57.195Z,56.25
2023-05-22T23:01:24.622Z,57.71
2023-05-22T23:03:51.604Z,57.96
2023-05-22T23:06:19.507Z,57.55
2023-05-22T23:08:46.205Z,57.67
2023-05-22T23:11:12.847Z,58.01
2023-05-22T23:13:41.317Z,58.98
2023-05-22T23:16:08.362Z,58.92
2023-05-22T23:18:35.454Z,59.22
2023-05-22T23:21:02.219Z,59.40
2023-05-22T23:23:28.944Z,59.52
2023-05-22T23:25:58.061Z,59.61
2023-05-22T23:28:27.732Z,60.35
2023-05-22T23:30:54.908Z,60.28
2023-05-22T23:33:21.737Z,60.77
2023-05-22T23:35:48.556Z,61.65
2023-05-22T23:38:15.215Z,61.39
2023-05-22T23:40:42.265Z,62.05
2023-05-22T23:43:08.814Z,61.79
2023-05-22T23:45:35.467Z,62.10
2023-05-22T23:48:02.262Z,62.28
2023-05-22T23:50:29.220Z,62.13
2023-05-22T23:52:56.022Z,62.85
2023-05-22T23:55:22.780Z,62.86
2023-05-22T23:57:50.049Z,62.85
